createdAt,value
2017-09-22T00:00:54.157Z,10.61
2017-09-22T00:01:54.709Z,10.68
2017-09-22T00:02:54.146Z,10.67
2017-09-22T00:03:54.451Z,10.57
2017-09-22T00:04:54.452Z,10.61
2017-09-22T00:05:54.448Z,10.61
2017-09-22T00:06:54.138Z,10.57
2017-09-22T00:07:54.440Z,10.53
2017-09-22T00:08:54.437Z,10.57
2017-09-22T00:09:54.131Z,10.53
2017-09-22T00:10:54.428Z,10.54
2017-09-22T00:11:54.432Z,10.56
2017-09-22T00:12:54.437Z,10.57
2017-09-22T00:13:54.130Z,10.53
2017-09-22T00:14:54.426Z,10.59
2017-09-22T00:15:54.104Z,10.53
2017-09-22T00:16:54.103Z,10.54
2017-09-22T00:17:54.118Z,10.59
2017-09-22T00:18:54.413Z,10.51
2017-09-22T00:19:54.104Z,10.54
2017-09-22T00:20:54.400Z,10.46
2017-09-22T00:21:53.778Z,10.56
2017-09-22T00:22:54.399Z,10.53
2017-09-22T00:23:53.776Z,10.53
2017-09-22T00:24:54.386Z,10.49
2017-09-22T00:25:54.390Z,10.54
2017-09-22T00:26:54.089Z,10.56
2017-09-22T00:27:54.082Z,10.57
2017-09-22T00:28:54.077Z,10.61
2017-09-22T00:29:54.070Z,10.75
2017-09-22T00:30:54.060Z,10.72
2017-09-22T00:44:39.224Z,10.76
2017-09-22T00:45:15.006Z,10.74
2017-09-22T00:46:14.381Z,10.74
2017-09-22T00:47:14.372Z,10.71
2017-09-22T00:48:14.372Z,10.71
2017-09-22T00:49:14.677Z,10.75
2017-09-22T00:50:15.861Z,10.67
2017-09-22T00:51:14.360Z,10.57
2017-09-22T00:52:14.668Z,10.54
2017-09-22T00:53:14.658Z,10.64
2017-09-22T00:54:14.705Z,10.6
2017-09-22T00:55:15.747Z,10.59
2017-09-22T00:56:14.695Z,10.6
2017-09-22T00:57:14.339Z,10.59
2017-09-22T00:58:14.644Z,10.59
2017-09-22T00:59:14.368Z,10.61
2017-09-22T01:00:16.251Z,10.57
2017-09-22T01:01:14.631Z,10.57
2017-09-22T01:02:14.324Z,10.57
2017-09-22T01:03:14.625Z,10.59
2017-09-22T01:04:14.622Z,10.57
2017-09-22T01:05:16.228Z,10.63
2017-09-22T01:06:14.314Z,10.61
2017-09-22T01:07:14.305Z,10.59
2017-09-22T01:08:14.629Z,10.57
2017-09-22T01:09:14.609Z,10.57
2017-09-22T01:10:15.322Z,10.59
2017-09-22T01:11:14.598Z,10.57
2017-09-22T01:12:14.321Z,10.59
2017-09-22T01:13:14.608Z,10.59
2017-09-22T01:14:14.588Z,10.6
2017-09-22T01:15:15.648Z,10.54
2017-09-22T01:16:13.966Z,10.54
2017-09-22T01:17:14.582Z,10.53
2017-09-22T01:18:14.576Z,10.56
2017-09-22T01:19:13.954Z,10.54
2017-09-22T01:20:15.186Z,10.53
2017-09-22T01:21:14.258Z,10.54
2017-09-22T01:22:14.573Z,10.59
2017-09-22T01:23:14.251Z,10.57
2017-09-22T01:24:14.251Z,10.51
2017-09-22T01:25:16.171Z,10.56
2017-09-22T01:26:14.245Z,10.46
2017-09-22T01:27:14.252Z,10.46
2017-09-22T01:28:14.232Z,10.33
2017-09-22T01:29:14.233Z,10.4
2017-09-22T01:30:15.221Z,10.44
2017-09-22T01:31:14.315Z,10.4
2017-09-22T01:32:13.921Z,10.38
2017-09-22T01:33:14.216Z,10.31
2017-09-22T01:34:14.547Z,10.34
2017-09-22T01:35:15.118Z,10.35
2017-09-22T01:36:14.519Z,10.35
2017-09-22T01:37:14.512Z,10.33
2017-09-22T01:38:14.206Z,10.28
2017-09-22T01:39:14.505Z,10.41
2017-09-22T01:40:15.658Z,10.37
2017-09-22T01:41:14.495Z,10.46
2017-09-22T01:42:14.491Z,10.44
2017-09-22T01:43:14.189Z,10.31
2017-09-22T01:44:14.489Z,10.37
2017-09-22T01:45:15.495Z,10.33
2017-09-22T01:46:14.479Z,10.33
2017-09-22T01:47:14.165Z,10.37
2017-09-22T01:48:14.163Z,10.33
2017-09-22T01:49:14.470Z,10.35
2017-09-22T01:50:15.468Z,10.41
2017-09-22T01:51:14.155Z,10.35
2017-09-22T01:52:14.468Z,10.35
2017-09-22T01:53:13.842Z,10.33
2017-09-22T01:54:14.153Z,10.3
2017-09-22T01:55:15.827Z,10.23
2017-09-22T01:56:14.135Z,10.33
2017-09-22T01:57:13.832Z,10.35
2017-09-22T01:58:14.130Z,10.41
2017-09-22T01:59:14.121Z,10.38
2017-09-22T02:00:15.643Z,10.35
2017-09-22T02:01:15.176Z,10.34
2017-09-22T02:02:14.162Z,10.33
2017-09-22T02:03:14.417Z,10.37
2017-09-22T02:04:14.112Z,10.44
2017-09-22T02:05:15.005Z,10.41
2017-09-22T02:06:14.431Z,10.33
2017-09-22T02:07:14.486Z,10.33
2017-09-22T02:08:14.399Z,10.26
2017-09-22T02:09:14.397Z,10.3
2017-09-22T02:10:15.911Z,10.28
2017-09-22T02:11:13.766Z,10.33
2017-09-22T02:12:14.074Z,10.33
2017-09-22T02:13:14.074Z,10.38
2017-09-22T02:14:14.069Z,10.41
2017-09-22T02:15:15.490Z,10.41
2017-09-22T02:16:14.065Z,10.54
2017-09-22T02:17:14.059Z,10.51
2017-09-22T02:18:14.056Z,10.57
2017-09-22T02:19:14.354Z,10.63
2017-09-22T02:20:15.638Z,10.64
2017-09-22T02:21:14.347Z,10.68
2017-09-22T02:22:14.350Z,10.63
2017-09-22T02:23:14.034Z,10.71
2017-09-22T02:24:14.033Z,10.61
2017-09-22T02:25:15.221Z,10.67
2017-09-22T02:26:13.714Z,10.54
2017-09-22T02:27:14.017Z,10.61
2017-09-22T02:28:14.322Z,10.59
2017-09-22T02:29:14.320Z,10.59
2017-09-22T02:30:15.270Z,10.64
2017-09-22T02:31:14.007Z,10.6
2017-09-22T02:32:13.685Z,10.51
2017-09-22T02:33:14.306Z,10.53
2017-09-22T02:34:13.994Z,10.49
2017-09-22T02:35:15.713Z,10.54
2017-09-22T02:36:13.982Z,10.46
2017-09-22T02:37:13.980Z,10.44
2017-09-22T02:38:13.978Z,10.44
2017-09-22T02:39:13.972Z,10.4
2017-09-22T02:40:15.928Z,10.42
2017-09-22T02:41:14.282Z,10.49
2017-09-22T02:42:13.964Z,10.35
2017-09-22T02:43:13.955Z,10.46
2017-09-22T02:44:14.261Z,10.4
2017-09-22T02:45:14.595Z,10.42
2017-09-22T02:46:13.638Z,10.37
2017-09-22T02:47:13.945Z,10.48
2017-09-22T02:48:13.942Z,10.38
2017-09-22T02:49:13.937Z,10.48
2017-09-22T02:50:15.262Z,10.49
2017-09-22T02:51:14.247Z,10.46
2017-09-22T02:52:14.232Z,10.34
2017-09-22T02:53:13.610Z,10.4
2017-09-22T02:54:13.918Z,10.34
2017-09-22T02:55:15.119Z,10.46
2017-09-22T02:56:13.914Z,10.46
2017-09-22T02:57:14.221Z,10.46
2017-09-22T02:58:14.242Z,10.48
2017-09-22T02:59:14.223Z,10.4
2017-09-22T03:00:15.362Z,10.4
2017-09-22T03:01:13.901Z,10.42
2017-09-22T03:02:14.205Z,10.37
2017-09-22T03:03:13.572Z,10.4
2017-09-22T03:04:14.192Z,10.33
2017-09-22T03:05:15.210Z,10.26
2017-09-22T03:06:14.191Z,10.31
2017-09-22T03:07:13.865Z,10.22
2017-09-22T03:08:14.170Z,10.2
2017-09-22T03:09:13.863Z,10.13
2017-09-22T03:10:15.265Z,10.22
2017-09-22T03:11:14.170Z,10.09
2017-09-22T03:12:14.170Z,10.12
2017-09-22T03:13:14.149Z,10.07
2017-09-22T03:14:13.842Z,10.1
2017-09-22T03:15:15.312Z,10.15
2017-09-22T03:16:13.830Z,9.99
2017-09-22T03:17:13.834Z,10.01
2017-09-22T03:18:13.825Z,9.94
2017-09-22T03:19:14.131Z,9.89
2017-09-22T03:20:15.318Z,9.92
2017-09-22T03:21:14.117Z,9.84
2017-09-22T03:22:14.116Z,9.86
2017-09-22T03:23:14.120Z,9.83
2017-09-22T03:24:14.115Z,9.79
2017-09-22T03:25:15.585Z,9.72
2017-09-22T03:26:13.796Z,9.66
2017-09-22T03:27:13.795Z,9.61
2017-09-22T03:28:13.795Z,9.65
2017-09-22T03:29:13.792Z,9.66
2017-09-22T03:30:15.509Z,9.59
2017-09-22T03:31:13.772Z,9.62
2017-09-22T03:32:15.334Z,9.55
2017-09-22T03:33:14.073Z,9.64
2017-09-22T03:34:13.465Z,9.54
2017-09-22T03:35:14.866Z,9.55
2017-09-22T03:36:14.068Z,9.55
2017-09-22T03:37:13.453Z,9.58
2017-09-22T03:38:13.748Z,9.56
2017-09-22T03:39:14.057Z,9.55
2017-09-22T03:40:15.079Z,9.5
2017-09-22T03:41:13.745Z,9.58
2017-09-22T03:42:13.730Z,9.58
2017-09-22T03:43:14.030Z,9.58
2017-09-22T03:44:13.731Z,9.59
2017-09-22T03:45:15.288Z,9.62
2017-09-22T03:46:14.013Z,9.55
2017-09-22T03:47:13.700Z,9.5
2017-09-22T03:48:13.404Z,9.58
2017-09-22T03:49:13.691Z,9.51
2017-09-22T03:50:15.076Z,9.56
2017-09-22T03:51:14.001Z,9.44
2017-09-22T03:52:13.686Z,9.48
2017-09-22T03:53:13.984Z,9.4
2017-09-22T03:54:13.671Z,9.46
2017-09-22T03:55:14.989Z,9.51
2017-09-22T03:56:13.687Z,9.41
2017-09-22T03:57:13.655Z,9.43
2017-09-22T03:58:13.959Z,9.4
2017-09-22T03:59:13.952Z,9.43
2017-09-22T04:00:15.295Z,9.39
2017-09-22T04:01:13.949Z,9.46
2017-09-22T04:02:14.227Z,9.41
2017-09-22T04:03:13.633Z,9.46
2017-09-22T04:04:13.628Z,9.39
2017-09-22T04:05:14.790Z,9.39
2017-09-22T04:06:13.922Z,9.48
2017-09-22T04:07:13.617Z,9.58
2017-09-22T04:08:13.612Z,9.56
2017-09-22T04:09:13.641Z,9.5
2017-09-22T04:10:14.892Z,9.54
2017-09-22T04:11:13.588Z,9.47
2017-09-22T04:12:13.583Z,9.46
2017-09-22T04:13:13.283Z,9.36
2017-09-22T04:14:13.282Z,9.37
2017-09-22T04:15:15.298Z,9.26
2017-09-22T04:16:13.580Z,9.37
2017-09-22T04:17:14.811Z,9.28
2017-09-22T04:18:13.868Z,9.28
2017-09-22T04:19:13.561Z,9.13
2017-09-22T04:20:15.032Z,9.37
2017-09-22T04:21:13.541Z,9.28
2017-09-22T04:22:13.564Z,9.32
2017-09-22T04:23:13.231Z,9.26
2017-09-22T04:24:13.536Z,9.19
2017-09-22T04:25:14.898Z,9.16
2017-09-22T04:26:13.531Z,9.21
2017-09-22T04:27:13.831Z,9.19
2017-09-22T04:28:13.820Z,9.19
2017-09-22T04:29:13.509Z,9.16
2017-09-22T04:30:14.515Z,9.13
2017-09-22T04:31:13.487Z,9.26
2017-09-22T04:32:15.641Z,9.28
2017-09-22T04:33:13.186Z,9.23
2017-09-22T04:34:13.798Z,9.14
2017-09-22T04:35:15.089Z,9.13
2017-09-22T04:36:13.800Z,9.16
2017-09-22T04:37:13.510Z,9.16
2017-09-22T04:38:13.146Z,9.13
2017-09-22T04:39:13.773Z,9.26
2017-09-22T04:40:14.350Z,9.37
2017-09-22T04:41:13.764Z,9.4
2017-09-22T04:42:13.764Z,9.36
2017-09-22T04:43:13.740Z,9.43
2017-09-22T04:44:13.432Z,9.55
2017-09-22T04:45:14.406Z,9.59
2017-09-22T04:46:13.750Z,9.61
2017-09-22T04:47:13.408Z,9.65
2017-09-22T04:48:13.407Z,9.62
2017-09-22T04:49:13.091Z,9.59
2017-09-22T04:50:14.496Z,9.66
2017-09-22T04:51:13.088Z,9.8
2017-09-22T04:52:13.389Z,9.73
2017-09-22T04:53:13.378Z,9.76
2017-09-22T04:54:13.704Z,9.73
2017-09-22T04:55:14.490Z,9.68
2017-09-22T04:56:13.382Z,9.56
2017-09-22T04:57:13.369Z,9.51
2017-09-22T04:58:13.045Z,9.43
2017-09-22T04:59:13.348Z,9.36
2017-09-22T05:00:13.910Z,9.37
2017-09-22T05:01:13.654Z,9.44
2017-09-22T05:02:13.664Z,9.43
2017-09-22T05:03:13.358Z,9.48
2017-09-22T05:04:13.333Z,9.4
2017-09-22T05:05:14.076Z,9.39
2017-09-22T05:06:13.016Z,9.47
2017-09-22T05:07:13.629Z,9.56
2017-09-22T05:08:13.629Z,9.54
2017-09-22T05:09:13.310Z,9.64
2017-09-22T05:10:14.578Z,9.65
2017-09-22T05:11:13.291Z,9.65
2017-09-22T05:12:13.286Z,9.61
2017-09-22T05:13:13.284Z,9.65
2017-09-22T05:14:13.608Z,9.5
2017-09-22T05:15:15.042Z,9.48
2017-09-22T05:16:12.967Z,9.55
2017-09-22T05:17:13.575Z,9.58
2017-09-22T05:18:13.257Z,9.55
2017-09-22T05:19:13.590Z,9.56
2017-09-22T05:20:14.712Z,9.56
2017-09-22T05:21:13.278Z,9.5
2017-09-22T05:22:13.561Z,9.55
2017-09-22T05:23:13.554Z,9.62
2017-09-22T05:24:13.557Z,9.61
2017-09-22T05:25:14.870Z,9.69
2017-09-22T05:26:12.911Z,9.65
2017-09-22T05:27:13.233Z,9.72
2017-09-22T05:28:13.539Z,9.76
2017-09-22T05:29:13.557Z,9.76
2017-09-22T05:30:14.852Z,9.86
2017-09-22T05:31:13.202Z,9.87
2017-09-22T05:32:13.193Z,9.87
2017-09-22T05:33:14.692Z,9.89
2017-09-22T05:34:13.192Z,9.89
2017-09-22T05:35:14.448Z,9.8
2017-09-22T05:36:13.176Z,9.83
2017-09-22T05:37:12.866Z,9.84
2017-09-22T05:38:13.484Z,9.84
2017-09-22T05:39:13.165Z,9.74
2017-09-22T05:40:14.687Z,9.8
2017-09-22T05:41:13.151Z,9.64
2017-09-22T05:42:13.456Z,9.65
2017-09-22T05:43:13.144Z,9.59
2017-09-22T05:44:13.139Z,9.62
2017-09-22T05:45:14.833Z,9.65
2017-09-22T05:46:13.135Z,9.64
2017-09-22T05:47:13.125Z,9.8
2017-09-22T05:48:15.280Z,9.86
2017-09-22T05:49:13.424Z,9.8
2017-09-22T05:50:14.091Z,9.89
2017-09-22T05:51:13.414Z,9.84
2017-09-22T05:52:13.097Z,9.86
2017-09-22T05:53:13.406Z,9.83
2017-09-22T05:54:13.092Z,9.87
2017-09-22T05:55:14.924Z,9.97
2017-09-22T05:56:13.079Z,10.09
2017-09-22T05:57:13.074Z,10.19
2017-09-22T05:58:13.384Z,10.13
2017-09-22T05:59:12.759Z,10.13
2017-09-22T06:00:14.304Z,10.26
2017-09-22T06:01:13.059Z,10.26
2017-09-22T06:02:13.365Z,10.34
2017-09-22T06:03:13.056Z,10.46
2017-09-22T06:04:13.047Z,10.63
2017-09-22T06:05:14.319Z,10.57
2017-09-22T06:06:13.346Z,10.74
2017-09-22T06:07:13.045Z,10.89
2017-09-22T06:08:13.351Z,10.93
2017-09-22T06:09:13.026Z,10.89
2017-09-22T06:10:13.994Z,11.04
2017-09-22T06:11:13.024Z,11.15
2017-09-22T06:12:13.345Z,11.18
2017-09-22T06:13:13.343Z,11.29
2017-09-22T06:14:13.021Z,11.32
2017-09-22T06:15:14.505Z,11.36
2017-09-22T06:16:13.004Z,11.41
2017-09-22T06:17:12.691Z,11.43
2017-09-22T06:18:12.998Z,11.51
2017-09-22T06:19:12.996Z,11.5
2017-09-22T06:20:14.101Z,11.59
2017-09-22T06:21:13.296Z,11.65
2017-09-22T06:22:12.995Z,11.75
2017-09-22T06:23:13.295Z,11.72
2017-09-22T06:24:12.996Z,11.83
2017-09-22T06:25:14.144Z,11.77
2017-09-22T06:26:12.995Z,11.59
2017-09-22T06:27:12.682Z,11.57
2017-09-22T06:28:13.292Z,11.59
2017-09-22T06:29:12.968Z,11.59
2017-09-22T06:30:14.434Z,11.59
2017-09-22T06:31:12.965Z,11.62
2017-09-22T06:32:12.961Z,11.65
2017-09-22T06:33:12.965Z,11.72
2017-09-22T06:34:15.338Z,11.7
2017-09-22T06:35:13.977Z,11.83
2017-09-22T06:36:13.274Z,11.78
2017-09-22T06:37:13.259Z,11.83
2017-09-22T06:38:12.949Z,11.81
2017-09-22T06:39:12.944Z,11.69
2017-09-22T06:40:13.908Z,11.77
2017-09-22T06:41:13.259Z,11.69
2017-09-22T06:42:13.246Z,11.77
2017-09-22T06:43:12.949Z,11.63
2017-09-22T06:44:12.937Z,11.55
2017-09-22T06:45:14.745Z,11.55
2017-09-22T06:46:12.629Z,11.41
2017-09-22T06:47:12.928Z,11.32
2017-09-22T06:48:12.616Z,11.35
2017-09-22T06:49:13.235Z,11.23
2017-09-22T06:50:14.125Z,11.25
2017-09-22T06:51:13.245Z,11.23
2017-09-22T06:52:13.220Z,11.22
2017-09-22T06:53:13.239Z,11.26
2017-09-22T06:54:12.912Z,11.27
2017-09-22T06:55:14.495Z,11.3
2017-09-22T06:56:13.224Z,11.33
2017-09-22T06:57:13.218Z,11.22
2017-09-22T06:58:13.233Z,11.14
2017-09-22T06:59:12.904Z,11.17
2017-09-22T07:00:14.355Z,11.19
2017-09-22T07:01:13.204Z,11.26
2017-09-22T07:02:13.202Z,11.4
2017-09-22T07:03:13.185Z,11.4
2017-09-22T07:04:18.450Z,11.52
2017-09-22T07:05:13.583Z,11.63
2017-09-22T07:06:12.563Z,11.57
2017-09-22T07:07:12.872Z,11.7
2017-09-22T07:08:13.171Z,11.72
2017-09-22T07:09:12.874Z,11.83
2017-09-22T07:10:13.558Z,11.88
2017-09-22T07:11:12.857Z,11.97
2017-09-22T07:12:12.860Z,12.12
2017-09-22T07:13:12.856Z,12.2
2017-09-22T07:14:12.848Z,12.21
2017-09-22T07:15:13.892Z,12.37
2017-09-22T07:16:13.154Z,12.35
2017-09-22T07:17:12.533Z,12.32
2017-09-22T07:18:13.149Z,12.45
2017-09-22T07:19:13.169Z,12.49
2017-09-22T07:20:14.218Z,12.58
2017-09-22T07:21:13.144Z,12.65
2017-09-22T07:22:12.828Z,12.61
2017-09-22T07:23:13.144Z,12.61
2017-09-22T07:24:12.827Z,12.6
2017-09-22T07:25:13.329Z,12.76
2017-09-22T07:26:12.818Z,12.9
2017-09-22T07:27:12.819Z,13.19
2017-09-22T07:28:13.125Z,13.54
2017-09-22T07:29:13.134Z,13.75
2017-09-22T07:30:13.527Z,13.79
2017-09-22T07:31:13.162Z,13.68
2017-09-22T07:32:12.812Z,13.7
2017-09-22T07:33:12.812Z,13.57
2017-09-22T07:34:12.808Z,13.44
2017-09-22T07:35:14.018Z,13.44
2017-09-22T07:36:13.131Z,13.35
2017-09-22T07:37:13.124Z,13.37
2017-09-22T07:38:13.125Z,13.41
2017-09-22T07:39:13.115Z,13.38
2017-09-22T07:40:13.947Z,13.54
2017-09-22T07:41:12.803Z,13.54
2017-09-22T07:42:13.109Z,13.85
2017-09-22T07:43:13.114Z,13.92
2017-09-22T07:44:12.805Z,14.07
2017-09-22T07:45:13.902Z,14.17
2017-09-22T07:46:13.107Z,14.18
2017-09-22T07:47:12.799Z,14.18
2017-09-22T07:48:13.108Z,14.23
2017-09-22T07:49:12.798Z,14.18
2017-09-22T07:50:13.874Z,14.29
2017-09-22T07:51:12.799Z,14.35
2017-09-22T07:52:12.797Z,14.4
2017-09-22T07:53:13.105Z,14.37
2017-09-22T07:54:12.800Z,14.43
2017-09-22T07:55:13.161Z,14.44
2017-09-22T07:56:12.795Z,14.45
2017-09-22T07:57:12.814Z,14.48
2017-09-22T07:58:12.485Z,14.51
2017-09-22T07:59:13.113Z,14.65
2017-09-22T08:00:14.351Z,14.96
2017-09-22T08:01:13.118Z,15.37
2017-09-22T08:02:12.483Z,16
2017-09-22T08:03:12.485Z,16.57
2017-09-22T08:04:13.129Z,17.11
2017-09-22T08:05:16.853Z,17.72
2017-09-22T08:06:12.805Z,18.08
2017-09-22T08:07:12.800Z,18.41
2017-09-22T08:08:13.113Z,18.59
2017-09-22T08:09:12.811Z,18.86
2017-09-22T08:10:14.763Z,19.07
2017-09-22T08:11:12.807Z,19.07
2017-09-22T08:12:13.118Z,18.74
2017-09-22T08:13:12.827Z,18.43
2017-09-22T08:14:13.126Z,18.04
2017-09-22T08:15:15.196Z,17.48
2017-09-22T08:16:13.135Z,17.05
2017-09-22T08:17:13.143Z,16.71
2017-09-22T08:18:12.829Z,16.36
2017-09-22T08:19:12.837Z,16.24
2017-09-22T08:20:14.120Z,15.95
2017-09-22T08:21:12.839Z,15.88
2017-09-22T08:22:12.845Z,15.75
2017-09-22T08:23:13.152Z,15.64
2017-09-22T08:24:13.157Z,15.62
2017-09-22T08:25:14.540Z,15.59
2017-09-22T08:26:12.849Z,15.64
2017-09-22T08:27:12.860Z,15.55
2017-09-22T08:28:13.165Z,15.47
2017-09-22T08:29:13.171Z,15.4
2017-09-22T08:30:14.207Z,15.39
2017-09-22T08:31:12.862Z,15.43
2017-09-22T08:32:12.552Z,15.64
2017-09-22T08:33:12.864Z,15.61
2017-09-22T08:34:13.171Z,15.75
2017-09-22T08:35:14.084Z,15.94
2017-09-22T08:36:12.872Z,16.1
2017-09-22T08:37:13.179Z,16.21
2017-09-22T08:38:12.573Z,16.28
2017-09-22T08:39:13.182Z,16.43
2017-09-22T08:40:14.313Z,16.56
2017-09-22T08:41:12.884Z,16.68
2017-09-22T08:42:13.197Z,16.75
2017-09-22T08:43:12.886Z,16.75
2017-09-22T08:44:12.884Z,16.84
2017-09-22T08:45:13.789Z,16.84
2017-09-22T08:46:12.925Z,16.9
2017-09-22T08:47:12.889Z,16.79
2017-09-22T08:48:12.897Z,16.74
2017-09-22T08:49:13.200Z,16.89
2017-09-22T08:50:14.801Z,16.84
2017-09-22T08:51:13.203Z,16.76
2017-09-22T08:52:13.204Z,16.89
2017-09-22T08:53:12.899Z,16.9
2017-09-22T08:54:12.907Z,16.84
2017-09-22T08:55:13.248Z,16.79
2017-09-22T08:56:12.596Z,16.84
2017-09-22T08:57:13.251Z,16.87
2017-09-22T08:58:12.905Z,16.97
2017-09-22T08:59:13.213Z,16.97
2017-09-22T09:00:14.093Z,17.06
2017-09-22T09:01:12.597Z,17.06
2017-09-22T09:02:13.224Z,17.09
2017-09-22T09:03:12.917Z,17.16
2017-09-22T09:04:13.224Z,17.31
2017-09-22T09:05:13.612Z,17.36
2017-09-22T09:06:13.985Z,17.54
2017-09-22T09:07:13.241Z,17.67
2017-09-22T09:08:12.919Z,17.72
2017-09-22T09:09:13.230Z,17.7
2017-09-22T09:10:14.232Z,17.71
2017-09-22T09:11:12.619Z,17.74
2017-09-22T09:12:13.237Z,17.72
2017-09-22T09:13:12.937Z,17.7
2017-09-22T09:14:12.939Z,17.63
2017-09-22T09:15:14.161Z,17.56
2017-09-22T09:16:12.936Z,17.51
2017-09-22T09:17:13.257Z,17.39
2017-09-22T09:18:13.255Z,17.44
2017-09-22T09:19:12.949Z,17.26
2017-09-22T09:20:14.830Z,17.19
2017-09-22T09:21:13.250Z,17.05
2017-09-22T09:22:13.261Z,17.05
2017-09-22T09:23:13.262Z,17.08
2017-09-22T09:24:12.952Z,17.05
2017-09-22T09:25:14.288Z,17.15
2017-09-22T09:26:13.272Z,17.15
2017-09-22T09:27:12.956Z,17.38
2017-09-22T09:28:13.270Z,17.38
2017-09-22T09:29:13.278Z,17.39
2017-09-22T09:30:14.134Z,17.57
2017-09-22T09:31:12.968Z,17.63
2017-09-22T09:32:13.284Z,17.76
2017-09-22T09:33:13.296Z,17.79
2017-09-22T09:34:13.290Z,17.97
2017-09-22T09:35:13.858Z,17.92
2017-09-22T09:36:16.429Z,18
2017-09-22T09:37:12.975Z,18.04
2017-09-22T09:38:13.284Z,18.05
2017-09-22T09:39:12.685Z,18.08
2017-09-22T09:40:14.058Z,18.16
2017-09-22T09:41:13.290Z,18.16
2017-09-22T09:42:12.980Z,18.11
2017-09-22T09:43:13.300Z,18.03
2017-09-22T09:44:12.688Z,17.85
2017-09-22T09:45:13.756Z,17.78
2017-09-22T09:46:13.002Z,17.67
2017-09-22T09:47:13.296Z,17.54
2017-09-22T09:48:12.692Z,17.44
2017-09-22T09:49:12.992Z,17.45
2017-09-22T09:50:14.215Z,17.31
2017-09-22T09:51:13.007Z,17.44
2017-09-22T09:52:13.003Z,17.33
2017-09-22T09:53:12.999Z,17.34
2017-09-22T09:54:12.698Z,17.29
2017-09-22T09:55:13.813Z,17.3
2017-09-22T09:56:13.008Z,17.39
2017-09-22T09:57:13.004Z,17.51
2017-09-22T09:58:13.322Z,17.54
2017-09-22T09:59:13.012Z,17.63
2017-09-22T10:00:14.480Z,17.74
2017-09-22T10:01:13.325Z,17.76
2017-09-22T10:02:13.022Z,17.79
2017-09-22T10:03:13.113Z,18
2017-09-22T10:04:13.019Z,18.05
2017-09-22T10:05:14.140Z,18.11
2017-09-22T10:06:13.021Z,18.25
2017-09-22T10:07:13.332Z,18.29
2017-09-22T10:08:13.031Z,18.25
2017-09-22T10:09:13.381Z,18.2
2017-09-22T10:10:14.784Z,18.26
2017-09-22T10:11:12.730Z,18.31
2017-09-22T10:12:13.346Z,18.31
2017-09-22T10:13:13.044Z,18.33
2017-09-22T10:14:13.044Z,18.31
2017-09-22T10:15:14.524Z,18.34
2017-09-22T10:16:13.042Z,18.26
2017-09-22T10:17:13.351Z,18.35
2017-09-22T10:18:13.047Z,18.26
2017-09-22T10:19:13.365Z,18.18
2017-09-22T10:20:14.858Z,18.05
2017-09-22T10:21:12.765Z,18.07
2017-09-22T10:22:13.374Z,18.08
2017-09-22T10:23:13.062Z,18.04
2017-09-22T10:24:13.368Z,18.04
2017-09-22T10:25:15.013Z,18.08
2017-09-22T10:26:13.367Z,18.03
2017-09-22T10:27:13.374Z,18.08
2017-09-22T10:28:13.374Z,18.01
2017-09-22T10:29:13.378Z,18.08
2017-09-22T10:30:14.174Z,18.07
2017-09-22T10:31:13.375Z,18.05
2017-09-22T10:32:13.379Z,18.13
2017-09-22T10:33:12.777Z,18.11
2017-09-22T10:34:13.082Z,18.13
2017-09-22T10:35:14.995Z,18.37
2017-09-22T10:36:13.402Z,18.43
2017-09-22T10:37:13.334Z,18.58
2017-09-22T10:38:13.396Z,18.8
2017-09-22T10:39:13.402Z,18.95
2017-09-22T10:40:14.697Z,18.95
2017-09-22T10:41:13.091Z,18.92
2017-09-22T10:42:13.422Z,18.84
2017-09-22T10:43:13.102Z,18.73
2017-09-22T10:44:13.103Z,18.7
2017-09-22T10:45:14.454Z,18.74
2017-09-22T10:46:13.104Z,18.77
2017-09-22T10:47:13.259Z,18.73
2017-09-22T10:48:13.426Z,18.7
2017-09-22T10:49:12.804Z,18.71
2017-09-22T10:50:14.807Z,18.65
2017-09-22T10:51:13.427Z,18.7
2017-09-22T10:52:18.215Z,18.6
2017-09-22T10:53:13.112Z,18.7
2017-09-22T10:54:13.431Z,18.66
2017-09-22T10:55:14.541Z,18.59
2017-09-22T10:56:13.429Z,18.5
2017-09-22T10:57:13.131Z,18.55
2017-09-22T10:58:13.130Z,18.55
2017-09-22T10:59:12.819Z,18.47
2017-09-22T11:00:14.910Z,18.55
2017-09-22T11:01:13.136Z,18.63
2017-09-22T11:02:13.447Z,18.63
2017-09-22T11:03:13.444Z,18.74
2017-09-22T11:04:13.479Z,18.59
2017-09-22T11:05:15.215Z,18.66
2017-09-22T11:06:13.456Z,18.73
2017-09-22T11:07:13.148Z,18.74
2017-09-22T11:08:13.149Z,18.66
2017-09-22T11:09:13.150Z,18.78
2017-09-22T11:10:14.674Z,18.84
2017-09-22T11:11:13.461Z,18.96
2017-09-22T11:12:13.153Z,19.12
2017-09-22T11:13:13.152Z,19.16
2017-09-22T11:14:13.476Z,19.24
2017-09-22T11:15:14.450Z,19.22
2017-09-22T11:16:13.169Z,19.26
2017-09-22T11:17:13.163Z,19.22
2017-09-22T11:18:13.164Z,19.26
2017-09-22T11:19:13.167Z,19.31
2017-09-22T11:20:15.131Z,19.4
2017-09-22T11:21:13.488Z,19.39
2017-09-22T11:22:13.483Z,19.4
2017-09-22T11:23:13.184Z,19.39
2017-09-22T11:24:13.182Z,19.51
2017-09-22T11:25:14.561Z,19.59
2017-09-22T11:26:13.497Z,19.73
2017-09-22T11:27:13.188Z,19.7
2017-09-22T11:28:13.206Z,19.79
2017-09-22T11:29:13.204Z,19.85
2017-09-22T11:30:13.847Z,19.84
2017-09-22T11:31:13.505Z,19.79
2017-09-22T11:32:13.513Z,19.63
2017-09-22T11:33:13.206Z,19.58
2017-09-22T11:34:13.207Z,19.47
2017-09-22T11:35:14.767Z,19.31
2017-09-22T11:36:13.207Z,19.4
2017-09-22T11:37:13.217Z,19.34
2017-09-22T11:38:13.221Z,19.34
2017-09-22T11:39:13.217Z,19.36
2017-09-22T11:40:14.155Z,19.4
2017-09-22T11:41:12.915Z,19.45
2017-09-22T11:42:13.221Z,19.51
2017-09-22T11:43:13.223Z,19.52
2017-09-22T11:44:13.226Z,19.64
2017-09-22T11:45:14.308Z,19.79
2017-09-22T11:46:12.921Z,19.77
2017-09-22T11:47:13.236Z,19.81
2017-09-22T11:48:13.559Z,19.73
2017-09-22T11:49:13.547Z,19.64
2017-09-22T11:50:13.720Z,19.56
2017-09-22T11:51:13.558Z,19.58
2017-09-22T11:52:12.937Z,19.51
2017-09-22T11:53:12.986Z,19.52
2017-09-22T11:54:13.558Z,19.48
2017-09-22T11:55:14.703Z,19.45
2017-09-22T11:56:13.260Z,19.41
2017-09-22T11:57:13.270Z,19.41
2017-09-22T11:58:13.258Z,19.52
2017-09-22T11:59:13.267Z,19.63
2017-09-22T12:00:14.338Z,19.69
2017-09-22T12:01:13.580Z,19.82
2017-09-22T12:02:13.266Z,19.84
2017-09-22T12:03:13.271Z,19.91
2017-09-22T12:04:13.588Z,19.86
2017-09-22T12:05:14.654Z,19.77
2017-09-22T12:06:13.278Z,19.82
2017-09-22T12:07:13.278Z,19.86
2017-09-22T12:08:14.899Z,19.94
2017-09-22T12:09:13.290Z,19.96
2017-09-22T12:10:14.552Z,20.03
2017-09-22T12:11:13.599Z,20.04
2017-09-22T12:12:12.982Z,20.02
2017-09-22T12:13:13.294Z,20
2017-09-22T12:14:13.612Z,20.09
2017-09-22T12:15:14.502Z,20.02
2017-09-22T12:16:13.608Z,20.03
2017-09-22T12:17:13.615Z,20.02
2017-09-22T12:18:13.621Z,20.03
2017-09-22T12:19:13.313Z,20.14
2017-09-22T12:20:14.766Z,20.22
2017-09-22T12:21:13.625Z,20.26
2017-09-22T12:22:13.324Z,20.28
2017-09-22T12:23:13.938Z,20.37
2017-09-22T12:24:13.631Z,20.37
2017-09-22T12:25:14.709Z,20.37
2017-09-22T12:26:13.326Z,20.41
2017-09-22T12:27:13.333Z,20.32
2017-09-22T12:28:13.639Z,20.34
2017-09-22T12:29:13.336Z,20.26
2017-09-22T12:30:14.766Z,20.31
2017-09-22T12:31:13.663Z,20.34
2017-09-22T12:32:13.663Z,20.25
2017-09-22T12:33:13.343Z,20.24
2017-09-22T12:34:13.682Z,20.32
2017-09-22T12:35:14.489Z,20.37
2017-09-22T12:36:13.679Z,20.39
2017-09-22T12:37:13.046Z,20.34
2017-09-22T12:38:13.049Z,20.34
2017-09-22T12:39:13.677Z,20.5
2017-09-22T12:40:14.811Z,20.44
2017-09-22T12:41:13.696Z,20.4
2017-09-22T12:42:13.713Z,20.34
2017-09-22T12:43:13.387Z,20.31
2017-09-22T12:44:13.715Z,20.24
2017-09-22T12:45:14.430Z,20.24
2017-09-22T12:46:13.399Z,20.25
2017-09-22T12:47:13.392Z,20.22
2017-09-22T12:48:13.397Z,20.16
2017-09-22T12:49:13.404Z,20.16
2017-09-22T12:50:15.592Z,20.16
2017-09-22T12:51:13.089Z,20.22
2017-09-22T12:52:13.708Z,20.24
2017-09-22T12:53:13.709Z,20.09
2017-09-22T12:54:13.400Z,20.06
2017-09-22T12:55:14.577Z,20.11
2017-09-22T12:56:13.416Z,20.02
2017-09-22T12:57:13.431Z,20
2017-09-22T12:58:13.737Z,20.13
2017-09-22T12:59:13.751Z,20.19
2017-09-22T13:00:14.799Z,20.28
2017-09-22T13:01:13.114Z,20.31
2017-09-22T13:02:13.757Z,20.39
2017-09-22T13:03:13.440Z,20.34
2017-09-22T13:04:13.428Z,20.56
2017-09-22T13:05:14.817Z,20.56
2017-09-22T13:06:13.754Z,20.62
2017-09-22T13:07:13.434Z,20.67
2017-09-22T13:08:13.762Z,20.66
2017-09-22T13:09:13.140Z,20.67
2017-09-22T13:10:15.025Z,20.72
2017-09-22T13:11:13.449Z,20.77
2017-09-22T13:12:13.770Z,20.85
2017-09-22T13:13:13.454Z,20.85